Für Piloten

Informationen für Piloten zum Flugplatz Borken-Hoxfeld
Hier findest Du alle relevanten Informationen, die Du als Pilot benötigst, um Borken-Hoxfeld anzufliegen.

Flugplatz: Borken-Hoxfeld ICAO-Code: EDLY
Borken-Hoxfeld Info: 122,930 Mhz
GAFOR Gebiet: 32
Platzrunde: Motorflug; -> Südplatzrunde; Segelflug; -> Nordplatzrunde;
Landegebühr: z.Zt. 5,00 Euro
Platzhöhe: 48m üMSL
Pisten: 12/30 – 740 m x 30 m, GRAS
Betriebszeiten: PPR (in den Sommermonaten Mittagspause beachten)

 

Wetterforecast:

Available data for EDDL from the past 2 hours
DUESSELDORF
Metar
EDDL 041020Z 15011KT 9999 SCT008 BKN043 05/04 Q0996 NOSIG

10:20 UTC

Wind: 150° 11kt

Visibility: 9999 m

Sky: SCT 800 ft

Temp: 5 deg C / 41 deg F

Dewpoint: 4 deg C / 39.2 deg F

Pressure: 996 hPa

TAF
TAF EDDL 040500Z 0406/0512 15011KT 9999 BKN020 TEMPO 0406/0408 BKN012 BECMG 0410/0413 16006KT BKN012 BECMG 0413/0416 26010KT RA PROB30 TEMPO 0415/0420 27015G25KT 4000 RA BKN008 BECMG 0418/0420 NSW BKN030 BECMG 0422/0501 20010KT PROB30 TEMPO 0503/0512 SHRA BKN020TCU

Alle obigen Informationen ersetzen nicht die vorgeschriebene, persönliche Flugvorbereitung.